Time;durP1;ratioP1;P1;durP2;ratioP2;P2;SDS_P1;SDS_P2;PMS_P1;PMS_P2;Temp;Humidity;BMP_temperature;BMP_pressure;BME280_temperature;BME280_humidity;BME280_pressure;Samples;Min_cycle;Max_cycle;Signal;HPM_P1;HPM_P2
2022/07/22 00:00:42;;;;;;;1.27;1.17;;;;;;;17.99;88.46;99996.78;1688009;83;20982;-68
2022/07/22 00:03:08;;;;;;;2.30;1.77;;;;;;;17.96;88.47;99999.45;1696582;83;21065;-69
2022/07/22 00:05:35;;;;;;;1.10;1.00;;;;;;;17.96;88.45;100000.80;1687109;83;21037;-69
2022/07/22 00:08:04;;;;;;;1.40;1.35;;;;;;;17.97;88.41;100002.45;1695413;83;21034;-69
2022/07/22 00:10:32;;;;;;;0.95;0.95;;;;;;;17.97;88.28;100002.45;1691285;83;21093;-69
2022/07/22 00:12:58;;;;;;;;;;;;;;;17.96;88.21;100004.84;1666414;80;20997;-68
2022/07/22 00:15:25;;;;;;;3.05;0.90;;;;;;;17.95;88.11;100003.23;1671818;84;20582;-68
2022/07/22 00:17:51;;;;;;;1.65;1.55;;;;;;;17.90;88.53;100011.23;1671722;84;21025;-69
2022/07/22 00:20:19;;;;;;;;;;;;;;;17.88;88.95;100007.42;1674015;84;20993;-68
2022/07/22 00:22:45;;;;;;;1.87;1.22;;;;;;;17.88;89.43;100003.92;1670253;83;20165;-68
2022/07/22 00:25:13;;;;;;;2.37;1.27;;;;;;;17.83;90.66;100005.14;1629520;86;21043;-68
2022/07/22 00:27:39;;;;;;;1.98;1.85;;;;;;;17.80;92.03;100004.27;1699583;84;21040;-69
2022/07/22 00:30:07;;;;;;;2.95;1.75;;;;;;;17.82;92.93;100004.84;1700021;84;21595;-67
2022/07/22 00:32:34;;;;;;;2.08;1.98;;;;;;;17.81;93.43;99999.98;1698349;84;21091;-67
2022/07/22 00:34:59;;;;;;;;;;;;;;;17.83;94.04;100002.45;1701165;83;20965;-68
2022/07/22 00:37:27;;;;;;;1.85;1.75;;;;;;;17.84;94.45;100005.44;1675722;84;20151;-68
2022/07/22 00:39:53;;;;;;;2.60;2.12;;;;;;;17.78;95.59;100006.39;1670707;84;21121;-68
2022/07/22 00:42:20;;;;;;;2.85;2.45;;;;;;;17.76;96.29;100005.83;1676254;84;21085;-68
2022/07/22 00:44:46;;;;;;;;;;;;;;;17.73;96.80;100007.14;1678077;84;21478;-68
2022/07/22 00:47:12;;;;;;;2.25;2.15;;;;;;;17.73;96.94;100015.77;1674817;84;20111;-68
2022/07/22 00:49:38;;;;;;;;;;;;;;;17.68;97.26;100015.94;1667555;84;20999;-68
2022/07/22 00:52:05;;;;;;;2.67;2.47;;;;;;;17.67;97.12;100016.20;1676817;84;20135;-68
2022/07/22 00:54:33;;;;;;;4.20;2.27;;;;;;;17.67;97.59;100012.97;1673289;84;21507;-68
2022/07/22 00:56:59;;;;;;;3.35;1.85;;;;;;;17.69;97.57;100011.39;1640482;84;20994;-69
2022/07/22 00:59:25;;;;;;;2.62;2.27;;;;;;;17.69;97.83;100010.05;1644666;86;21548;-68
2022/07/22 01:01:52;;;;;;;2.87;2.37;;;;;;;17.66;98.21;100010.52;1655415;84;21014;-69
2022/07/22 01:04:18;;;;;;;;;;;;;;;17.64;98.01;100010.75;1633543;86;21082;-68
2022/07/22 01:06:45;;;;;;;3.20;3.00;;;;;;;17.65;97.95;100006.17;1644742;85;20145;-68
2022/07/22 01:09:13;;;;;;;3.10;2.17;;;;;;;17.62;98.06;100009.38;1632737;86;21510;-68
2022/07/22 01:11:41;;;;;;;2.67;2.47;;;;;;;17.61;98.10;100009.91;1649104;86;21001;-68
2022/07/22 01:14:09;;;;;;;2.77;2.67;;;;;;;17.59;98.26;100012.55;1660848;85;21025;-68
2022/07/22 01:16:36;;;;;;;5.50;2.62;;;;;;;17.59;98.08;100015.23;1663110;85;21092;-68
2022/07/22 01:19:04;;;;;;;3.08;2.45;;;;;;;17.58;98.17;100011.73;1648245;86;21028;-69
2022/07/22 01:21:30;;;;;;;2.83;2.55;;;;;;;17.56;98.43;100011.70;1656262;84;21046;-68
2022/07/22 01:23:58;;;;;;;3.40;3.12;;;;;;;17.54;98.59;100005.70;1628656;84;21194;-69
2022/07/22 01:26:24;;;;;;;3.35;2.77;;;;;;;17.53;98.37;100009.48;1603821;88;21092;-67
2022/07/22 01:28:51;;;;;;;2.20;1.85;;;;;;;17.54;98.42;100006.55;1605184;88;21041;-69
2022/07/22 01:31:18;;;;;;;2.02;1.92;;;;;;;17.55;98.32;100008.16;1600819;88;21085;-69
2022/07/22 01:33:45;;;;;;;2.60;2.47;;;;;;;17.54;98.17;100009.23;1627942;85;21101;-68
2022/07/22 01:36:12;;;;;;;3.15;2.77;;;;;;;17.52;98.13;100004.62;1668371;85;21034;-68
2022/07/22 01:38:39;;;;;;;2.00;1.90;;;;;;;17.53;98.10;100009.48;1659218;85;21044;-68
2022/07/22 01:41:05;;;;;;;3.00;2.45;;;;;;;17.53;98.02;100006.24;1658776;85;21036;-69
2022/07/22 01:43:34;;;;;;;2.58;2.02;;;;;;;17.54;97.85;100010.59;1619341;86;21008;-69
2022/07/22 01:46:00;;;;;;;6.42;2.30;;;;;;;17.53;97.90;100012.98;1649339;84;21000;-69
2022/07/22 01:48:26;;;;;;;2.45;2.10;;;;;;;17.56;97.83;100014.39;1648243;85;21125;-69
2022/07/22 01:50:54;;;;;;;2.50;2.30;;;;;;;17.56;97.71;100019.25;1652705;85;21078;-69
2022/07/22 01:53:20;;;;;;;1.98;1.87;;;;;;;17.55;97.85;100018.94;1648809;85;21047;-69
2022/07/22 01:55:47;;;;;;;2.62;2.52;;;;;;;17.53;98.04;100014.33;1644091;85;21022;-69
2022/07/22 01:58:13;;;;;;;2.55;2.35;;;;;;;17.49;98.15;100020.73;1650101;85;21029;-67
2022/07/22 02:00:40;;;;;;;4.53;2.52;;;;;;;17.45;98.54;100016.89;1650758;85;21084;-68
2022/07/22 02:03:07;;;;;;;2.90;2.80;;;;;;;17.45;98.74;100024.16;1650607;85;21014;-67
2022/07/22 02:05:34;;;;;;;2.95;2.75;;;;;;;17.43;98.83;100022.23;1651045;85;21556;-67
2022/07/22 02:08:06;;;;;;;2.58;2.35;;;;;;;17.40;99.35;100026.21;1650698;85;21050;-69
2022/07/22 02:10:36;;;;;;;4.25;2.47;;;;;;;17.38;99.47;100020.79;1638272;85;21088;-69
2022/07/22 02:13:04;;;;;;;2.45;2.25;;;;;;;17.36;99.60;100021.56;1654791;84;21058;-67
2022/07/22 02:15:30;;;;;;;5.75;2.70;;;;;;;17.37;99.82;100024.56;1672135;84;21010;-68
2022/07/22 02:17:56;;;;;;;3.58;3.27;;;;;;;17.37;100.00;100031.30;1651982;84;21050;-68
2022/07/22 02:20:23;;;;;;;3.27;2.80;;;;;;;17.36;100.00;100030.98;1636770;86;21078;-68
2022/07/22 02:22:51;;;;;;;3.27;2.90;;;;;;;17.35;100.00;100036.08;1661360;84;21029;-67
2022/07/22 02:25:18;;;;;;;4.65;2.25;;;;;;;17.33;100.00;100041.73;1642500;86;21022;-68
2022/07/22 02:27:44;;;;;;;;;;;;;;;17.31;100.00;100043.31;1644037;86;21056;-67
2022/07/22 02:30:12;;;;;;;3.75;3.10;;;;;;;17.29;100.00;100040.04;1656697;84;20174;-67
2022/07/22 02:32:39;;;;;;;3.45;3.15;;;;;;;17.24;100.00;100045.31;1679394;84;21079;-68
2022/07/22 02:35:07;;;;;;;2.90;2.70;;;;;;;17.27;100.00;100042.66;1687872;82;21501;-68
2022/07/22 02:37:34;;;;;;;3.10;2.90;;;;;;;17.31;100.00;100039.81;1679327;84;21059;-68
2022/07/22 02:40:01;;;;;;;3.15;2.87;;;;;;;17.37;100.00;100042.07;1666410;84;21048;-67
2022/07/22 02:42:28;;;;;;;2.95;2.75;;;;;;;17.40;100.00;100044.27;1669981;84;21059;-67
2022/07/22 02:44:54;;;;;;;3.50;3.15;;;;;;;17.46;100.00;100044.64;1651051;85;21562;-67
2022/07/22 02:47:21;;;;;;;3.35;3.05;;;;;;;17.52;100.00;100032.92;1716864;83;21661;-68
2022/07/22 02:49:47;;;;;;;3.52;3.33;;;;;;;17.28;100.00;99987.75;1665030;84;21467;-68
2022/07/22 02:52:15;;;;;;;3.85;3.37;;;;;;;17.69;100.00;100048.58;1650831;86;21009;-67
2022/07/22 02:54:43;;;;;;;5.25;3.08;;;;;;;17.73;100.00;100052.97;1627178;86;21565;-68
2022/07/22 02:57:09;;;;;;;3.62;3.42;;;;;;;17.79;100.00;100053.87;1676933;83;20959;-69
2022/07/22 02:59:36;;;;;;;3.92;3.02;;;;;;;17.84;100.00;100052.11;1643322;86;21085;-68
2022/07/22 03:02:03;;;;;;;2.90;2.70;;;;;;;17.96;99.84;100052.03;1678472;84;21559;-67
2022/07/22 03:04:30;;;;;;;4.53;3.12;;;;;;;18.20;99.00;100054.05;1673437;84;21531;-67
2022/07/22 03:06:57;;;;;;;2.62;2.40;;;;;;;18.50;97.24;100044.79;1678342;84;21058;-69
2022/07/22 03:09:23;;;;;;;6.95;3.87;;;;;;;18.83;94.43;100047.95;1671038;84;21383;-67
2022/07/22 03:11:50;;;;;;;3.02;2.20;;;;;;;19.26;93.67;100044.16;1675515;83;20976;-68
2022/07/22 03:14:18;;;;;;;2.75;2.55;;;;;;;19.77;89.76;100047.95;1677405;85;21545;-68
2022/07/22 03:16:45;;;;;;;2.95;2.52;;;;;;;20.19;86.16;100048.57;1673001;84;21556;-67
2022/07/22 03:19:13;;;;;;;4.37;2.50;;;;;;;20.62;84.18;100054.85;1679670;84;21159;-68
2022/07/22 03:21:39;;;;;;;4.33;2.08;;;;;;;21.01;81.29;100055.87;1666396;84;21359;-68
2022/07/22 03:24:07;;;;;;;4.50;2.55;;;;;;;21.34;78.57;100061.42;1674436;84;21149;-67
2022/07/22 03:26:35;;;;;;;2.77;2.52;;;;;;;21.62;76.62;100051.73;1677582;84;21058;-68
2022/07/22 03:29:01;;;;;;;2.87;2.40;;;;;;;21.87;74.45;100057.73;1679631;84;21467;-68
2022/07/22 03:31:29;;;;;;;2.47;2.30;;;;;;;22.04;74.05;100057.47;1677950;84;21549;-68
2022/07/22 03:33:55;;;;;;;2.37;1.92;;;;;;;22.26;72.91;100052.59;1679621;83;21015;-68
2022/07/22 03:36:22;;;;;;;2.80;1.67;;;;;;;22.54;70.85;100055.83;1679460;84;21464;-68
2022/07/22 03:38:51;;;;;;;2.55;1.60;;;;;;;22.70;68.98;100046.56;1679547;84;21486;-68
2022/07/22 03:41:18;;;;;;;1.90;1.80;;;;;;;22.77;69.28;100051.69;1650952;84;21496;-69
2022/07/22 03:43:44;;;;;;;3.83;1.98;;;;;;;22.91;68.13;100056.01;1648821;85;21109;-67
2022/07/22 03:46:11;;;;;;;1.80;1.70;;;;;;;23.02;67.89;100051.33;1675426;84;21025;-68
2022/07/22 03:48:38;;;;;;;1.85;1.75;;;;;;;23.18;66.48;100062.44;1670870;84;21160;-68
2022/07/22 03:51:05;;;;;;;3.17;2.22;;;;;;;23.27;66.61;100053.16;1697799;83;21074;-68
2022/07/22 03:53:32;;;;;;;1.45;1.35;;;;;;;23.23;65.69;100056.98;1665400;84;21498;-68
2022/07/22 03:56:00;;;;;;;2.42;2.27;;;;;;;23.06;66.45;100060.61;1687330;84;22250;-68
2022/07/22 03:58:28;;;;;;;2.02;1.52;;;;;;;23.04;66.88;100066.31;1660532;84;21058;-69
2022/07/22 04:00:55;;;;;;;2.15;1.95;;;;;;;23.19;66.60;100055.92;1678686;84;21046;-69
2022/07/22 04:03:21;;;;;;;2.02;1.65;;;;;;;23.16;65.94;100061.10;1671282;84;21085;-72
2022/07/22 04:05:52;;;;;;;1.80;1.70;;;;;;;22.93;66.75;100063.34;1672262;84;21033;-69
2022/07/22 04:08:22;;;;;;;3.27;2.98;;;;;;;22.76;67.23;100061.50;1677299;84;21006;-69
2022/07/22 04:10:49;;;;;;;2.02;1.92;;;;;;;22.49;68.41;100051.75;1694467;82;21022;-69
2022/07/22 04:13:16;;;;;;;2.47;2.27;;;;;;;22.34;69.07;100053.98;1670254;83;21026;-68
2022/07/22 04:15:44;;;;;;;2.15;2.00;;;;;;;22.26;69.76;100068.89;1680917;84;21534;-68
2022/07/22 04:18:11;;;;;;;4.33;2.67;;;;;;;22.22;69.81;100065.62;1675631;84;21018;-68
2022/07/22 04:20:37;;;;;;;2.12;1.87;;;;;;;22.17;69.70;100062.38;1680082;84;21063;-69
2022/07/22 04:23:14;;;;;;;1.85;1.80;;;;;;;22.04;69.82;100058.30;1633820;82;21066;-70
2022/07/22 04:25:41;;;;;;;2.40;2.30;;;;;;;21.94;70.44;100067.78;1664216;84;21132;-70
2022/07/22 04:28:07;;;;;;;4.03;2.60;;;;;;;21.80;71.10;100063.44;1673973;84;21066;-79
2022/07/22 04:30:34;;;;;;;3.80;2.22;;;;;;;21.70;71.35;100068.31;1656294;85;21102;-68
2022/07/22 04:33:00;;;;;;;4.05;2.83;;;;;;;21.80;71.55;100073.48;1654279;85;21643;-69
2022/07/22 04:35:26;;;;;;;2.55;2.35;;;;;;;22.14;70.37;100077.84;1632064;86;21314;-69
2022/07/22 04:37:54;;;;;;;2.22;2.02;;;;;;;22.56;68.42;100071.30;1605770;87;21057;-69
2022/07/22 04:40:22;;;;;;;3.33;2.10;;;;;;;23.02;66.83;100079.34;1652502;85;21038;-69
2022/07/22 04:42:48;;;;;;;1.92;1.82;;;;;;;23.27;64.63;100081.72;1650747;85;21066;-68
2022/07/22 04:45:14;;;;;;;2.52;2.33;;;;;;;23.30;64.57;100076.53;1632770;85;21029;-71
2022/07/22 04:47:41;;;;;;;2.15;2.05;;;;;;;23.65;63.16;100074.69;1608085;87;21038;-72
2022/07/22 04:50:08;;;;;;;1.50;1.50;;;;;;;24.04;62.18;100074.46;1607025;87;21295;-69
2022/07/22 04:52:35;;;;;;;3.33;1.65;;;;;;;24.56;59.97;100076.19;1614359;87;21792;-72
2022/07/22 04:55:01;;;;;;;2.92;1.75;;;;;;;24.95;58.48;100073.87;1619759;87;21077;-71
2022/07/22 04:57:27;;;;;;;1.27;1.27;;;;;;;25.20;57.36;100070.84;1647040;86;21033;-72
2022/07/22 04:59:55;;;;;;;2.00;1.50;;;;;;;25.12;57.28;100079.64;1652106;86;21070;-67
2022/07/22 05:02:21;;;;;;;1.98;1.85;;;;;;;24.86;57.99;100073.16;1620027;87;21701;-71
2022/07/22 05:04:48;;;;;;;1.70;1.65;;;;;;;24.52;59.24;100077.31;1618799;87;21574;-73
2022/07/22 05:07:15;;;;;;;1.95;1.85;;;;;;;24.21;60.39;100084.95;1617816;87;21088;-70
2022/07/22 05:09:44;;;;;;;3.72;2.00;;;;;;;23.92;61.90;100084.89;1620748;87;21072;-73
2022/07/22 05:12:11;;;;;;;3.20;2.27;;;;;;;23.79;62.64;100093.97;1625276;86;21041;-72
2022/07/22 05:14:38;;;;;;;4.60;2.65;;;;;;;23.82;63.28;100078.42;1633918;86;21056;-72
2022/07/22 05:17:12;;;;;;;1.60;1.50;;;;;;;23.93;63.03;100086.52;1627307;86;21103;-71
2022/07/22 05:19:40;;;;;;;2.42;2.00;;;;;;;24.20;62.50;100087.39;1634696;86;21023;-71
2022/07/22 05:22:08;;;;;;;2.10;2.00;;;;;;;24.18;62.03;100091.75;1631502;86;21091;-72
2022/07/22 05:24:35;;;;;;;2.45;2.25;;;;;;;24.20;61.81;100080.58;1619315;87;21631;-69
2022/07/22 05:27:03;;;;;;;3.08;2.85;;;;;;;24.07;62.39;100090.21;1619284;87;20990;-69
2022/07/22 05:29:30;;;;;;;2.60;2.40;;;;;;;24.00;63.19;100088.38;1618461;87;21517;-68
2022/07/22 05:31:57;;;;;;;3.10;2.90;;;;;;;24.07;61.80;100089.69;1623917;87;20999;-70
2022/07/22 05:34:25;;;;;;;4.22;3.77;;;;;;;24.10;62.57;100096.45;1630484;86;21183;-68
2022/07/22 05:36:53;;;;;;;7.20;4.87;;;;;;;24.05;62.04;100091.05;1639153;86;21002;-70
2022/07/22 05:39:19;;;;;;;3.25;3.05;;;;;;;23.99;61.88;100095.72;1637325;86;21003;-69
2022/07/22 05:41:45;;;;;;;2.05;1.85;;;;;;;23.77;62.29;100093.41;1638635;86;21030;-70
2022/07/22 05:44:13;;;;;;;5.53;2.85;;;;;;;23.61;62.75;100091.31;1639473;86;21335;-69
2022/07/22 05:46:40;;;;;;;2.90;1.70;;;;;;;23.26;64.29;100036.57;1638997;86;21511;-68
2022/07/22 05:49:06;;;;;;;2.08;2.00;;;;;;;23.86;63.72;100090.91;1631790;87;21302;-67
2022/07/22 05:51:36;;;;;;;5.58;2.45;;;;;;;24.23;62.43;100076.73;1596086;88;21141;-68
2022/07/22 05:54:03;;;;;;;3.50;3.17;;;;;;;24.60;60.66;100093.58;1627805;86;20983;-69
2022/07/22 05:56:31;;;;;;;3.45;3.25;;;;;;;24.76;59.88;100086.88;1624936;86;21120;-69
2022/07/22 05:58:57;;;;;;;4.75;3.50;;;;;;;24.95;59.00;100082.84;1625252;86;21101;-68
2022/07/22 06:01:23;;;;;;;2.75;2.42;;;;;;;25.07;58.17;100090.61;1637729;85;21104;-68
2022/07/22 06:03:50;;;;;;;2.80;2.60;;;;;;;25.12;57.93;100089.19;1642897;86;21053;-69
2022/07/22 06:06:17;;;;;;;2.85;2.65;;;;;;;25.06;57.78;100082.98;1636331;86;21123;-67
2022/07/22 06:08:44;;;;;;;3.47;2.80;;;;;;;25.21;57.23;100084.72;1644033;86;21750;-68
2022/07/22 06:11:11;;;;;;;2.20;2.00;;;;;;;25.36;57.37;100090.56;1643328;86;21075;-67
2022/07/22 06:13:38;;;;;;;2.52;2.42;;;;;;;25.57;56.67;100084.27;1638529;86;21026;-69
2022/07/22 06:16:06;;;;;;;3.35;2.45;;;;;;;25.81;55.42;100088.28;1616690;86;21045;-68
2022/07/22 06:18:32;;;;;;;5.17;2.70;;;;;;;25.74;55.35;100085.67;1619749;87;21547;-68
2022/07/22 06:21:00;;;;;;;3.80;1.70;;;;;;;25.55;55.55;100093.30;1645339;86;21073;-69
2022/07/22 06:23:28;;;;;;;1.77;1.55;;;;;;;25.54;55.80;100092.23;1630537;86;21081;-69
2022/07/22 06:25:54;;;;;;;3.87;1.95;;;;;;;25.51;55.72;100090.11;1666220;85;21106;-68
2022/07/22 06:28:25;;;;;;;3.00;2.42;;;;;;;25.49;54.62;100091.76;1660451;85;21090;-70
2022/07/22 06:30:51;;;;;;;7.87;4.75;;;;;;;25.27;55.44;100098.33;1664594;85;21019;-68
2022/07/22 06:33:18;;;;;;;3.15;3.05;;;;;;;25.10;56.80;100098.22;1662974;85;21966;-68
2022/07/22 06:35:44;;;;;;;3.15;2.60;;;;;;;25.15;55.69;100093.27;1644048;86;21091;-69
2022/07/22 06:38:10;;;;;;;3.47;1.80;;;;;;;25.19;55.85;100101.13;1642981;86;21061;-67
2022/07/22 06:40:48;;;;;;;4.17;1.60;;;;;;;25.38;55.27;100101.19;1639550;86;21147;-70
2022/07/22 06:43:31;;;;;;;4.53;2.00;;;;;;;25.34;55.83;100099.59;1635197;86;21545;-68
2022/07/22 06:46:06;;;;;;;6.28;5.87;;;;;;;25.40;55.10;100103.87;1639429;86;20989;-67
2022/07/22 06:48:34;;;;;;;3.25;2.55;;;;;;;25.23;56.43;100100.83;1640499;86;21581;-69
2022/07/22 06:51:00;;;;;;;4.30;1.67;;;;;;;25.42;55.74;100104.38;1628791;86;21127;-68
2022/07/22 06:53:26;;;;;;;3.12;2.37;;;;;;;25.59;55.41;100116.72;1665050;85;22212;-70
2022/07/22 06:55:53;;;;;;;5.33;1.60;;;;;;;25.72;55.19;100099.61;1639806;86;21197;-69
2022/07/22 06:58:19;;;;;;;1.85;1.70;;;;;;;25.82;53.18;100109.03;1644273;86;21498;-69
2022/07/22 07:00:46;;;;;;;1.72;1.50;;;;;;;25.84;52.55;100108.18;1645071;86;20973;-69
2022/07/22 07:03:28;;;;;;;1.90;1.40;;;;;;;25.56;53.12;100108.58;1642484;86;21112;-69
2022/07/22 07:05:56;;;;;;;3.27;1.62;;;;;;;25.18;54.49;100098.13;1665371;85;21058;-68
2022/07/22 07:08:24;;;;;;;4.00;1.57;;;;;;;25.16;54.57;100103.86;1664963;85;21520;-70
2022/07/22 07:10:50;;;;;;;2.08;1.30;;;;;;;25.20;54.45;100102.20;1665587;85;21059;-69
2022/07/22 07:13:17;;;;;;;2.08;1.87;;;;;;;25.22;54.11;100102.72;1644131;86;21060;-69
2022/07/22 07:15:45;;;;;;;1.55;1.30;;;;;;;25.28;54.07;100106.23;1638810;86;21013;-69
2022/07/22 07:18:12;;;;;;;4.20;2.55;;;;;;;25.43;53.78;100097.03;1644992;86;21087;-70
2022/07/22 07:20:38;;;;;;;4.08;3.40;;;;;;;25.66;52.78;100103.53;1650236;86;21093;-70
2022/07/22 07:23:05;;;;;;;2.65;1.75;;;;;;;25.90;52.11;100097.16;1644473;86;20988;-70
2022/07/22 07:25:34;;;;;;;4.70;2.00;;;;;;;25.94;51.55;100100.41;1665477;85;21063;-70
2022/07/22 07:28:00;;;;;;;1.52;1.50;;;;;;;25.85;51.85;100099.42;1666701;85;21067;-70
2022/07/22 07:30:36;;;;;;;3.05;1.67;;;;;;;25.73;51.97;100111.33;1639182;85;21604;-69
2022/07/22 07:33:02;;;;;;;3.50;2.55;;;;;;;25.61;52.04;100113.14;1641497;86;21062;-69
2022/07/22 07:35:29;;;;;;;4.10;1.07;;;;;;;25.60;51.68;100108.81;1641757;86;21522;-69
2022/07/22 07:37:56;;;;;;;0.98;0.88;;;;;;;25.55;51.49;100103.41;1646120;86;21112;-70
2022/07/22 07:40:24;;;;;;;3.42;3.12;;;;;;;25.35;51.83;100110.75;1644385;86;21169;-70
2022/07/22 07:42:51;;;;;;;2.60;0.70;;;;;;;25.10;52.78;100109.69;1644819;86;21058;-70
2022/07/22 07:45:26;;;;;;;1.32;1.22;;;;;;;24.93;50.73;100110.95;1664946;85;22176;-70
2022/07/22 07:47:53;;;;;;;11.68;2.35;;;;;;;24.64;51.81;100117.27;1666340;85;21417;-70
2022/07/22 07:50:20;;;;;;;4.17;0.50;;;;;;;24.48;52.26;100119.83;1645742;86;21569;-69
2022/07/22 07:52:47;;;;;;;3.37;0.62;;;;;;;24.29;51.30;100119.16;1640559;85;21068;-68
2022/07/22 07:55:14;;;;;;;2.62;1.40;;;;;;;24.25;52.38;100122.20;1644992;86;21081;-70
2022/07/22 07:57:43;;;;;;;0.53;0.53;;;;;;;24.28;52.44;100118.92;1645066;86;21092;-69
2022/07/22 08:00:12;;;;;;;3.25;0.60;;;;;;;24.35;51.42;100113.68;1666243;85;21011;-70
2022/07/22 08:02:41;;;;;;;5.12;0.60;;;;;;;24.41;50.81;100112.00;1645382;86;21025;-70
2022/07/22 08:05:10;;;;;;;1.75;0.80;;;;;;;24.43;50.75;100107.61;1664362;85;21076;-70
2022/07/22 08:07:38;;;;;;;3.62;1.20;;;;;;;24.44;50.13;100110.05;1645764;86;21500;-70
2022/07/22 08:10:07;;;;;;;1.50;0.45;;;;;;;24.45;50.26;100119.05;1644879;86;21044;-69
2022/07/22 08:12:55;;;;;;;1.27;0.35;;;;;;;24.36;50.90;100120.77;1642211;86;21143;-70
2022/07/22 08:15:31;;;;;;;1.82;0.88;;;;;;;24.32;50.70;100127.86;1663323;85;21000;-69
2022/07/22 08:17:59;;;;;;;0.80;0.80;;;;;;;24.27;50.03;100123.28;1666631;85;21055;-70
2022/07/22 08:20:28;;;;;;;2.22;0.30;;;;;;;24.15;49.73;100115.48;1665651;85;21064;-72
2022/07/22 08:22:56;;;;;;;1.37;0.28;;;;;;;24.12;48.65;100124.21;1634812;86;21489;-69
2022/07/22 08:25:25;;;;;;;2.15;0.78;;;;;;;24.07;49.11;100129.16;1666456;85;21119;-70
2022/07/22 08:27:52;;;;;;;1.80;0.75;;;;;;;24.04;49.50;100113.38;1655470;85;21005;-69
2022/07/22 08:30:19;;;;;;;0.88;0.40;;;;;;;24.06;49.35;100117.99;1645999;86;21120;-72
2022/07/22 08:32:47;;;;;;;1.40;0.30;;;;;;;24.07;49.11;100122.35;1644004;86;22611;-69
2022/07/22 08:35:16;;;;;;;0.93;0.30;;;;;;;24.11;49.75;100123.97;1627318;86;21095;-71
2022/07/22 08:37:45;;;;;;;1.12;0.45;;;;;;;24.20;50.27;100111.34;1643033;86;21477;-70
2022/07/22 08:40:13;;;;;;;0.82;0.82;;;;;;;24.28;49.49;100114.83;1639408;86;21075;-70
2022/07/22 08:42:43;;;;;;;3.10;0.50;;;;;;;24.35;49.09;100120.48;1644240;86;20989;-70
2022/07/22 08:45:10;;;;;;;1.80;1.35;;;;;;;24.38;49.50;100125.37;1629803;86;21099;-70
2022/07/22 08:47:38;;;;;;;0.85;0.20;;;;;;;24.40;49.93;100133.52;1664977;85;21559;-69
2022/07/22 08:50:10;;;;;;;0.90;0.88;;;;;;;24.38;49.22;100124.02;1665624;85;21079;-69
2022/07/22 08:52:39;;;;;;;2.05;0.30;;;;;;;24.35;49.66;100128.66;1667137;85;21048;-68
2022/07/22 08:55:09;;;;;;;3.37;1.57;;;;;;;24.32;49.68;100125.13;1642756;84;21112;-69
2022/07/22 08:57:37;;;;;;;2.55;0.33;;;;;;;24.31;50.02;100119.44;1667483;85;21107;-70
2022/07/22 09:00:20;;;;;;;4.03;0.65;;;;;;;24.35;50.26;100117.77;1630940;86;21551;-68
2022/07/22 09:02:47;;;;;;;0.85;0.47;;;;;;;24.42;50.01;100122.34;1664604;85;21032;-70
2022/07/22 09:05:18;;;;;;;2.83;0.40;;;;;;;24.43;49.90;100128.04;1641445;86;22185;-69
2022/07/22 09:07:46;;;;;;;1.98;0.70;;;;;;;24.38;50.25;100132.99;1614207;86;21013;-70
2022/07/22 09:10:21;;;;;;;1.85;0.50;;;;;;;24.34;50.33;100134.67;1624743;85;20981;-70
2022/07/22 09:13:09;;;;;;;4.75;0.72;;;;;;;24.34;50.82;100131.14;1620358;87;21008;-71
2022/07/22 09:15:51;;;;;;;1.45;0.40;;;;;;;24.35;50.26;100116.41;1641643;86;21072;-70
2022/07/22 09:18:34;;;;;;;4.28;0.53;;;;;;;24.32;50.77;100121.89;1645284;86;21056;-70
2022/07/22 09:21:02;;;;;;;5.78;0.65;;;;;;;24.39;50.58;100129.19;1659388;85;21674;-70
2022/07/22 09:23:41;;;;;;;2.20;0.35;;;;;;;24.42;50.34;100129.15;1648157;85;21591;-71
2022/07/22 09:26:11;;;;;;;1.75;0.35;;;;;;;24.44;50.13;100132.40;1637956;86;21174;-71
2022/07/22 09:28:56;;;;;;;1.10;0.70;;;;;;;24.43;50.26;100130.76;1649050;86;21044;-72
2022/07/22 09:31:36;;;;;;;1.22;0.33;;;;;;;24.44;49.59;100131.03;1620488;87;21096;-69
2022/07/22 09:34:14;;;;;;;0.93;0.80;;;;;;;24.45;50.15;100132.13;1596716;87;21602;-70
2022/07/22 09:36:55;;;;;;;6.40;0.50;;;;;;;24.50;49.66;100125.80;1596034;87;21072;-70
2022/07/22 09:39:28;;;;;;;3.55;0.50;;;;;;;24.54;49.57;100127.44;1616141;87;21549;-70
2022/07/22 09:42:00;;;;;;;1.40;0.30;;;;;;;24.57;48.86;100135.85;1612102;87;21006;-71
2022/07/22 09:44:28;;;;;;;4.47;0.25;;;;;;;24.59;48.61;100126.84;1617885;87;21061;-73
2022/07/22 09:46:57;;;;;;;0.78;0.30;;;;;;;24.58;48.14;100131.20;1655636;85;21122;-71
2022/07/22 09:49:35;;;;;;;1.15;0.20;;;;;;;24.63;47.90;100134.70;1654786;85;21016;-71
2022/07/22 09:52:20;;;;;;;1.90;0.28;;;;;;;24.72;47.85;100134.09;1655186;85;21082;-70
2022/07/22 09:54:55;;;;;;;0.90;0.10;;;;;;;24.79;47.40;100131.28;1654442;85;21104;-70
2022/07/22 09:57:21;;;;;;;0.85;0.40;;;;;;;24.82;46.81;100142.95;1639759;84;21025;-70
2022/07/22 09:59:48;;;;;;;1.60;0.20;;;;;;;24.78;46.18;100132.93;1624687;86;21034;-70
2022/07/22 10:02:40;;;;;;;2.87;1.47;;;;;;;24.72;46.10;100136.81;1625048;86;20985;-71
2022/07/22 10:05:11;;;;;;;1.60;0.25;;;;;;;24.74;46.00;100131.33;1600035;87;21330;-69
2022/07/22 10:07:42;;;;;;;0.55;0.30;;;;;;;24.86;46.21;100128.20;1612975;86;21014;-70
2022/07/22 10:10:13;;;;;;;0.35;0.20;;;;;;;25.01;45.81;100139.50;1639018;86;20999;-70
2022/07/22 10:12:41;;;;;;;1.57;0.35;;;;;;;25.10;45.32;100145.14;1639850;86;21029;-72
2022/07/22 10:15:10;;;;;;;0.72;0.25;;;;;;;25.08;45.09;100132.34;1620083;86;21904;-71
2022/07/22 10:17:47;;;;;;;2.58;1.27;;;;;;;25.02;45.07;100132.39;1631655;86;21045;-70
2022/07/22 10:20:17;;;;;;;;;;;;;;;25.03;45.08;100138.13;1634935;86;21534;-70
2022/07/22 10:22:54;;;;;;;1.30;0.10;;;;;;;25.10;44.61;100128.22;1622614;86;20138;-69
2022/07/22 10:25:27;;;;;;;0.45;0.20;;;;;;;25.11;44.83;100129.85;1582258;89;21115;-69
2022/07/22 10:28:04;;;;;;;1.82;0.23;;;;;;;25.21;44.56;100139.83;1632701;86;21529;-71
2022/07/22 10:30:40;;;;;;;;;;;;;;;25.29;44.31;100133.75;1635618;86;21677;-70
2022/07/22 10:33:17;;;;;;;8.20;1.50;;;;;;;25.24;44.15;100136.53;1639089;86;20195;-70
2022/07/22 10:35:54;;;;;;;4.90;0.23;;;;;;;25.13;44.56;100145.91;1619377;87;21585;-72
2022/07/22 10:38:22;;;;;;;0.75;0.40;;;;;;;25.11;44.86;100139.40;1619145;87;21069;-71
2022/07/22 10:41:02;;;;;;;2.40;0.20;;;;;;;25.03;44.59;100130.47;1608238;87;21034;-69
2022/07/22 10:43:47;;;;;;;2.72;0.20;;;;;;;25.01;44.76;100131.31;1617453;87;21090;-69
2022/07/22 10:46:14;;;;;;;0.80;0.68;;;;;;;25.06;45.22;100142.98;1637630;86;21043;-69
2022/07/22 10:48:45;;;;;;;2.27;0.10;;;;;;;25.11;45.30;100131.75;1639504;86;21064;-71
2022/07/22 10:51:24;;;;;;;0.20;0.20;;;;;;;25.18;44.96;100132.22;1619247;87;21034;-71
2022/07/22 10:54:01;;;;;;;2.42;0.17;;;;;;;25.33;44.84;100135.34;1607633;87;21090;-68
2022/07/22 10:56:34;;;;;;;1.85;0.10;;;;;;;25.46;44.34;100131.89;1619079;87;21045;-70
2022/07/22 10:59:14;;;;;;;1.40;0.20;;;;;;;25.47;43.93;100146.34;1614533;87;21238;-69
2022/07/22 11:01:46;;;;;;;1.47;0.20;;;;;;;25.41;44.17;100140.97;1616932;85;21083;-69
2022/07/22 11:04:24;;;;;;;1.47;0.15;;;;;;;25.33;43.75;100134.78;1602461;87;21150;-71
2022/07/22 11:06:55;;;;;;;1.77;0.30;;;;;;;25.34;44.22;100129.59;1606307;88;21224;-70
2022/07/22 11:09:33;;;;;;;1.00;0.30;;;;;;;25.34;44.27;100123.34;1639698;86;21091;-71
2022/07/22 11:12:00;;;;;;;1.32;0.20;;;;;;;25.36;43.48;100132.84;1625518;85;21037;-71
2022/07/22 11:14:30;;;;;;;1.70;0.30;;;;;;;25.38;43.51;100144.83;1647546;86;21036;-71
2022/07/22 11:17:00;;;;;;;1.52;0.20;;;;;;;25.41;43.67;100132.78;1617935;87;20985;-71
2022/07/22 11:19:30;;;;;;;1.85;0.10;;;;;;;25.50;42.99;100145.20;1618054;87;21060;-70
2022/07/22 11:22:07;;;;;;;0.30;0.10;;;;;;;25.57;43.05;100133.95;1617857;87;21023;-70
2022/07/22 11:24:35;;;;;;;1.17;0.20;;;;;;;25.60;42.55;100136.91;1615199;87;21045;-70
2022/07/22 11:28:55;;;;;;;2.58;0.10;;;;;;;25.60;42.60;100130.08;1799798;78;22900;-71
2022/07/22 11:31:21;;;;;;;1.90;0.10;;;;;;;25.58;42.59;100122.74;1751635;80;21541;-69
2022/07/22 11:33:48;;;;;;;3.50;0.20;;;;;;;25.63;42.51;100136.86;1745612;80;21032;-70
2022/07/22 11:36:14;;;;;;;0.75;0.10;;;;;;;25.63;42.46;100130.84;1731288;81;21047;-72